sensor_id;sensor_type;location;lat;lon;timestamp;P1;durP1;ratioP1;P2;durP2;ratioP2
11711;SDS011;5912;51.034;6.984;2022-08-02T00:02:23;3.05;;;2.70;;
11711;SDS011;5912;51.034;6.984;2022-08-02T00:04:48;3.00;;;2.50;;
11711;SDS011;5912;51.034;6.984;2022-08-02T00:07:14;3.10;;;2.40;;
11711;SDS011;5912;51.034;6.984;2022-08-02T00:09:39;3.65;;;2.65;;
11711;SDS011;5912;51.034;6.984;2022-08-02T00:12:05;2.60;;;2.40;;
11711;SDS011;5912;51.034;6.984;2022-08-02T00:17:53;3.13;;;2.55;;
11711;SDS011;5912;51.034;6.984;2022-08-02T00:20:18;3.42;;;2.50;;
11711;SDS011;5912;51.034;6.984;2022-08-02T00:22:43;2.92;;;2.40;;
11711;SDS011;5912;51.034;6.984;2022-08-02T00:25:09;3.05;;;2.50;;
11711;SDS011;5912;51.034;6.984;2022-08-02T00:27:34;3.20;;;2.90;;
11711;SDS011;5912;51.034;6.984;2022-08-02T00:29:59;3.22;;;2.90;;
11711;SDS011;5912;51.034;6.984;2022-08-02T00:32:25;3.28;;;2.78;;
11711;SDS011;5912;51.034;6.984;2022-08-02T00:34:50;2.95;;;2.65;;
11711;SDS011;5912;51.034;6.984;2022-08-02T00:37:16;3.95;;;2.85;;
11711;SDS011;5912;51.034;6.984;2022-08-02T00:39:41;3.03;;;2.60;;
11711;SDS011;5912;51.034;6.984;2022-08-02T00:42:07;2.95;;;2.70;;
11711;SDS011;5912;51.034;6.984;2022-08-02T00:44:33;2.90;;;2.47;;
11711;SDS011;5912;51.034;6.984;2022-08-02T00:46:59;2.58;;;2.38;;
11711;SDS011;5912;51.034;6.984;2022-08-02T00:49:26;2.95;;;2.50;;
11711;SDS011;5912;51.034;6.984;2022-08-02T00:54:57;3.63;;;2.70;;
11711;SDS011;5912;51.034;6.984;2022-08-02T00:57:23;3.17;;;2.80;;
11711;SDS011;5912;51.034;6.984;2022-08-02T00:59:48;3.47;;;3.08;;
11711;SDS011;5912;51.034;6.984;2022-08-02T01:02:13;3.10;;;2.80;;
11711;SDS011;5912;51.034;6.984;2022-08-02T01:04:39;3.60;;;3.03;;
11711;SDS011;5912;51.034;6.984;2022-08-02T01:07:04;3.15;;;2.85;;
11711;SDS011;5912;51.034;6.984;2022-08-02T01:09:29;3.67;;;3.20;;
11711;SDS011;5912;51.034;6.984;2022-08-02T01:11:55;4.22;;;3.45;;
11711;SDS011;5912;51.034;6.984;2022-08-02T01:14:21;5.03;;;3.80;;
11711;SDS011;5912;51.034;6.984;2022-08-02T01:30:40;3.72;;;3.20;;
11711;SDS011;5912;51.034;6.984;2022-08-02T01:33:08;3.95;;;3.40;;
11711;SDS011;5912;51.034;6.984;2022-08-02T01:35:40;4.20;;;3.00;;
11711;SDS011;5912;51.034;6.984;2022-08-02T01:38:10;3.00;;;2.70;;
11711;SDS011;5912;51.034;6.984;2022-08-02T01:40:38;3.53;;;3.22;;
11711;SDS011;5912;51.034;6.984;2022-08-02T01:43:07;3.50;;;3.20;;
11711;SDS011;5912;51.034;6.984;2022-08-02T01:45:34;3.65;;;3.30;;
11711;SDS011;5912;51.034;6.984;2022-08-02T01:48:03;3.65;;;3.35;;
11711;SDS011;5912;51.034;6.984;2022-08-02T01:50:31;3.92;;;3.20;;
11711;SDS011;5912;51.034;6.984;2022-08-02T01:53:01;3.70;;;3.40;;
11711;SDS011;5912;51.034;6.984;2022-08-02T01:55:50;6.82;;;3.20;;
11711;SDS011;5912;51.034;6.984;2022-08-02T01:58:17;4.20;;;3.80;;
11711;SDS011;5912;51.034;6.984;2022-08-02T02:00:46;4.13;;;3.70;;
11711;SDS011;5912;51.034;6.984;2022-08-02T02:03:13;4.05;;;3.45;;
11711;SDS011;5912;51.034;6.984;2022-08-02T02:05:43;4.07;;;3.65;;
11711;SDS011;5912;51.034;6.984;2022-08-02T02:08:12;4.03;;;3.72;;
11711;SDS011;5912;51.034;6.984;2022-08-02T02:10:38;4.60;;;3.97;;
11711;SDS011;5912;51.034;6.984;2022-08-02T02:13:07;3.92;;;3.60;;
11711;SDS011;5912;51.034;6.984;2022-08-02T02:15:37;5.97;;;4.00;;
11711;SDS011;5912;51.034;6.984;2022-08-02T02:18:07;6.63;;;4.05;;
11711;SDS011;5912;51.034;6.984;2022-08-02T02:20:36;4.30;;;3.90;;
11711;SDS011;5912;51.034;6.984;2022-08-02T02:23:02;7.43;;;4.20;;
11711;SDS011;5912;51.034;6.984;2022-08-02T02:25:27;4.32;;;3.92;;
11711;SDS011;5912;51.034;6.984;2022-08-02T02:30:30;4.70;;;4.30;;
11711;SDS011;5912;51.034;6.984;2022-08-02T02:32:59;6.97;;;4.55;;
11711;SDS011;5912;51.034;6.984;2022-08-02T02:35:31;4.50;;;4.10;;
11711;SDS011;5912;51.034;6.984;2022-08-02T02:38:01;5.28;;;4.18;;
11711;SDS011;5912;51.034;6.984;2022-08-02T02:40:28;4.80;;;4.32;;
11711;SDS011;5912;51.034;6.984;2022-08-02T02:42:54;5.80;;;4.22;;
11711;SDS011;5912;51.034;6.984;2022-08-02T02:45:22;4.93;;;4.30;;
11711;SDS011;5912;51.034;6.984;2022-08-02T02:47:48;6.03;;;4.50;;
11711;SDS011;5912;51.034;6.984;2022-08-02T02:50:17;4.40;;;4.00;;
11711;SDS011;5912;51.034;6.984;2022-08-02T02:52:44;4.95;;;4.25;;
11711;SDS011;5912;51.034;6.984;2022-08-02T02:55:11;4.90;;;4.10;;
11711;SDS011;5912;51.034;6.984;2022-08-02T02:57:37;5.18;;;4.43;;
11711;SDS011;5912;51.034;6.984;2022-08-02T03:00:05;4.80;;;4.32;;
11711;SDS011;5912;51.034;6.984;2022-08-02T03:02:32;4.97;;;4.45;;
11711;SDS011;5912;51.034;6.984;2022-08-02T03:05:00;5.32;;;4.13;;
11711;SDS011;5912;51.034;6.984;2022-08-02T03:07:28;5.05;;;4.55;;
11711;SDS011;5912;51.034;6.984;2022-08-02T03:09:56;6.88;;;5.05;;
11711;SDS011;5912;51.034;6.984;2022-08-02T03:12:22;7.80;;;4.95;;
11711;SDS011;5912;51.034;6.984;2022-08-02T03:14:48;5.65;;;5.15;;
11711;SDS011;5912;51.034;6.984;2022-08-02T03:17:14;5.88;;;5.28;;
11711;SDS011;5912;51.034;6.984;2022-08-02T03:19:40;6.05;;;5.47;;
11711;SDS011;5912;51.034;6.984;2022-08-02T03:22:05;6.43;;;5.72;;
11711;SDS011;5912;51.034;6.984;2022-08-02T03:24:31;6.55;;;5.50;;
11711;SDS011;5912;51.034;6.984;2022-08-02T03:26:56;5.80;;;5.20;;
11711;SDS011;5912;51.034;6.984;2022-08-02T03:29:22;5.60;;;5.10;;
11711;SDS011;5912;51.034;6.984;2022-08-02T03:31:47;7.05;;;5.53;;
11711;SDS011;5912;51.034;6.984;2022-08-02T03:34:13;6.88;;;5.68;;
11711;SDS011;5912;51.034;6.984;2022-08-02T03:36:48;5.55;;;5.05;;
11711;SDS011;5912;51.034;6.984;2022-08-02T03:39:16;6.97;;;6.28;;
11711;SDS011;5912;51.034;6.984;2022-08-02T03:41:44;6.70;;;5.68;;
11711;SDS011;5912;51.034;6.984;2022-08-02T03:44:10;6.82;;;5.38;;
11711;SDS011;5912;51.034;6.984;2022-08-02T03:46:37;6.90;;;5.72;;
11711;SDS011;5912;51.034;6.984;2022-08-02T03:49:04;5.53;;;5.03;;
11711;SDS011;5912;51.034;6.984;2022-08-02T03:51:32;6.28;;;5.68;;
11711;SDS011;5912;51.034;6.984;2022-08-02T03:53:59;6.18;;;5.57;;
11711;SDS011;5912;51.034;6.984;2022-08-02T03:56:26;5.63;;;5.13;;
11711;SDS011;5912;51.034;6.984;2022-08-02T03:59:04;6.28;;;5.68;;
11711;SDS011;5912;51.034;6.984;2022-08-02T04:01:33;6.57;;;5.82;;
11711;SDS011;5912;51.034;6.984;2022-08-02T04:03:58;5.85;;;5.25;;
11711;SDS011;5912;51.034;6.984;2022-08-02T04:06:23;5.72;;;5.22;;
11711;SDS011;5912;51.034;6.984;2022-08-02T04:08:49;6.85;;;5.38;;
11711;SDS011;5912;51.034;6.984;2022-08-02T04:11:16;6.82;;;5.57;;
11711;SDS011;5912;51.034;6.984;2022-08-02T04:13:54;5.68;;;5.05;;
11711;SDS011;5912;51.034;6.984;2022-08-02T04:16:22;6.47;;;5.88;;
11711;SDS011;5912;51.034;6.984;2022-08-02T04:18:54;6.45;;;5.85;;
11711;SDS011;5912;51.034;6.984;2022-08-02T04:21:23;8.00;;;5.90;;
11711;SDS011;5912;51.034;6.984;2022-08-02T04:23:50;6.03;;;5.40;;
11711;SDS011;5912;51.034;6.984;2022-08-02T04:26:17;8.13;;;6.18;;
11711;SDS011;5912;51.034;6.984;2022-08-02T04:28:43;5.90;;;5.05;;
11711;SDS011;5912;51.034;6.984;2022-08-02T04:31:10;6.20;;;5.60;;
11711;SDS011;5912;51.034;6.984;2022-08-02T04:33:36;6.45;;;5.85;;
11711;SDS011;5912;51.034;6.984;2022-08-02T04:36:02;5.63;;;5.10;;
11711;SDS011;5912;51.034;6.984;2022-08-02T04:38:29;5.40;;;4.95;;
11711;SDS011;5912;51.034;6.984;2022-08-02T04:40:55;5.75;;;5.13;;
11711;SDS011;5912;51.034;6.984;2022-08-02T04:43:21;5.65;;;4.95;;
11711;SDS011;5912;51.034;6.984;2022-08-02T04:45:48;5.72;;;5.13;;
11711;SDS011;5912;51.034;6.984;2022-08-02T04:48:16;7.93;;;5.22;;
11711;SDS011;5912;51.034;6.984;2022-08-02T04:50:41;7.63;;;6.20;;
11711;SDS011;5912;51.034;6.984;2022-08-02T04:53:07;6.00;;;5.50;;
11711;SDS011;5912;51.034;6.984;2022-08-02T04:55:32;6.20;;;5.60;;
11711;SDS011;5912;51.034;6.984;2022-08-02T04:57:57;6.15;;;5.35;;
11711;SDS011;5912;51.034;6.984;2022-08-02T05:00:23;7.00;;;5.90;;
11711;SDS011;5912;51.034;6.984;2022-08-02T05:02:49;6.35;;;5.78;;
11711;SDS011;5912;51.034;6.984;2022-08-02T05:05:16;6.32;;;5.72;;
11711;SDS011;5912;51.034;6.984;2022-08-02T05:07:42;6.65;;;5.93;;
11711;SDS011;5912;51.034;6.984;2022-08-02T05:10:07;5.53;;;5.05;;
11711;SDS011;5912;51.034;6.984;2022-08-02T05:12:33;6.20;;;5.60;;
11711;SDS011;5912;51.034;6.984;2022-08-02T05:14:58;6.15;;;5.55;;
11711;SDS011;5912;51.034;6.984;2022-08-02T05:17:24;7.95;;;5.82;;
11711;SDS011;5912;51.034;6.984;2022-08-02T05:19:49;7.03;;;5.95;;
11711;SDS011;5912;51.034;6.984;2022-08-02T05:22:14;6.75;;;5.65;;
11711;SDS011;5912;51.034;6.984;2022-08-02T05:24:39;7.97;;;6.00;;
11711;SDS011;5912;51.034;6.984;2022-08-02T05:27:05;7.50;;;6.38;;
11711;SDS011;5912;51.034;6.984;2022-08-02T05:29:30;7.30;;;5.90;;
11711;SDS011;5912;51.034;6.984;2022-08-02T05:31:56;8.82;;;5.88;;
11711;SDS011;5912;51.034;6.984;2022-08-02T05:34:21;5.85;;;5.22;;
11711;SDS011;5912;51.034;6.984;2022-08-02T05:36:46;7.00;;;5.90;;
11711;SDS011;5912;51.034;6.984;2022-08-02T05:39:11;5.20;;;4.75;;
11711;SDS011;5912;51.034;6.984;2022-08-02T05:41:37;5.90;;;5.00;;
11711;SDS011;5912;51.034;6.984;2022-08-02T05:44:02;5.55;;;5.05;;
11711;SDS011;5912;51.034;6.984;2022-08-02T05:46:28;5.70;;;5.10;;
11711;SDS011;5912;51.034;6.984;2022-08-02T05:48:54;5.43;;;4.93;;
11711;SDS011;5912;51.034;6.984;2022-08-02T05:51:39;6.28;;;5.45;;
11711;SDS011;5912;51.034;6.984;2022-08-02T05:54:11;6.30;;;4.82;;
11711;SDS011;5912;51.034;6.984;2022-08-02T05:56:49;5.70;;;5.07;;
11711;SDS011;5912;51.034;6.984;2022-08-02T05:59:28;4.43;;;4.03;;
11711;SDS011;5912;51.034;6.984;2022-08-02T06:02:18;6.90;;;4.70;;
11711;SDS011;5912;51.034;6.984;2022-08-02T06:07:43;6.03;;;5.40;;
11711;SDS011;5912;51.034;6.984;2022-08-02T06:10:09;5.90;;;5.40;;
11711;SDS011;5912;51.034;6.984;2022-08-02T06:15:14;6.18;;;4.80;;
11711;SDS011;5912;51.034;6.984;2022-08-02T06:17:41;6.15;;;4.32;;
11711;SDS011;5912;51.034;6.984;2022-08-02T06:20:07;5.75;;;4.97;;
11711;SDS011;5912;51.034;6.984;2022-08-02T06:22:34;7.20;;;4.85;;
11711;SDS011;5912;51.034;6.984;2022-08-02T06:25:02;7.07;;;4.55;;
11711;SDS011;5912;51.034;6.984;2022-08-02T06:27:28;5.00;;;4.40;;
11711;SDS011;5912;51.034;6.984;2022-08-02T06:29:54;5.28;;;4.32;;
11711;SDS011;5912;51.034;6.984;2022-08-02T06:32:20;5.07;;;4.57;;
11711;SDS011;5912;51.034;6.984;2022-08-02T06:34:46;3.92;;;3.63;;
11711;SDS011;5912;51.034;6.984;2022-08-02T06:37:58;4.63;;;4.22;;
11711;SDS011;5912;51.034;6.984;2022-08-02T06:40:10;5.18;;;4.43;;
11711;SDS011;5912;51.034;6.984;2022-08-02T06:45:58;4.07;;;3.45;;
11711;SDS011;5912;51.034;6.984;2022-08-02T06:48:24;4.38;;;3.88;;
11711;SDS011;5912;51.034;6.984;2022-08-02T06:50:49;6.30;;;3.83;;
11711;SDS011;5912;51.034;6.984;2022-08-02T06:53:14;3.55;;;3.25;;
11711;SDS011;5912;51.034;6.984;2022-08-02T06:55:40;3.67;;;3.35;;
11711;SDS011;5912;51.034;6.984;2022-08-02T06:58:05;3.65;;;2.90;;
11711;SDS011;5912;51.034;6.984;2022-08-02T07:00:30;4.75;;;3.20;;
11711;SDS011;5912;51.034;6.984;2022-08-02T07:02:56;5.63;;;3.28;;
11711;SDS011;5912;51.034;6.984;2022-08-02T07:05:21;2.70;;;2.50;;
11711;SDS011;5912;51.034;6.984;2022-08-02T07:07:47;4.03;;;3.55;;
11711;SDS011;5912;51.034;6.984;2022-08-02T07:10:13;2.47;;;2.22;;
11711;SDS011;5912;51.034;6.984;2022-08-02T07:12:38;2.97;;;2.53;;
11711;SDS011;5912;51.034;6.984;2022-08-02T07:15:04;1.88;;;1.75;;
11711;SDS011;5912;51.034;6.984;2022-08-02T07:17:31;3.10;;;2.25;;
11711;SDS011;5912;51.034;6.984;2022-08-02T07:19:57;2.58;;;2.20;;
11711;SDS011;5912;51.034;6.984;2022-08-02T07:22:23;3.95;;;2.60;;
11711;SDS011;5912;51.034;6.984;2022-08-02T07:24:57;2.25;;;1.98;;
11711;SDS011;5912;51.034;6.984;2022-08-02T07:27:24;2.88;;;2.03;;
11711;SDS011;5912;51.034;6.984;2022-08-02T07:29:50;2.35;;;1.80;;
11711;SDS011;5912;51.034;6.984;2022-08-02T07:32:19;2.28;;;2.08;;
11711;SDS011;5912;51.034;6.984;2022-08-02T07:34:46;3.92;;;2.10;;
11711;SDS011;5912;51.034;6.984;2022-08-02T07:37:12;3.42;;;2.20;;
11711;SDS011;5912;51.034;6.984;2022-08-02T07:39:37;1.88;;;1.77;;
11711;SDS011;5912;51.034;6.984;2022-08-02T07:42:02;2.67;;;1.92;;
11711;SDS011;5912;51.034;6.984;2022-08-02T07:44:28;2.00;;;1.80;;
11711;SDS011;5912;51.034;6.984;2022-08-02T07:46:58;2.03;;;1.55;;
11711;SDS011;5912;51.034;6.984;2022-08-02T07:49:27;3.00;;;1.75;;
11711;SDS011;5912;51.034;6.984;2022-08-02T07:51:53;1.60;;;1.50;;
11711;SDS011;5912;51.034;6.984;2022-08-02T07:54:19;1.90;;;1.58;;
11711;SDS011;5912;51.034;6.984;2022-08-02T07:56:44;2.78;;;1.60;;
11711;SDS011;5912;51.034;6.984;2022-08-02T07:59:10;3.15;;;1.95;;
11711;SDS011;5912;51.034;6.984;2022-08-02T08:01:35;3.25;;;1.63;;
11711;SDS011;5912;51.034;6.984;2022-08-02T08:04:01;4.88;;;1.52;;
11711;SDS011;5912;51.034;6.984;2022-08-02T08:06:27;2.88;;;1.55;;
11711;SDS011;5912;51.034;6.984;2022-08-02T08:08:53;5.45;;;1.60;;
11711;SDS011;5912;51.034;6.984;2022-08-02T08:11:18;3.25;;;1.70;;
11711;SDS011;5912;51.034;6.984;2022-08-02T08:13:43;2.85;;;1.63;;
11711;SDS011;5912;51.034;6.984;2022-08-02T08:16:09;2.20;;;1.38;;
11711;SDS011;5912;51.034;6.984;2022-08-02T08:18:34;1.38;;;1.20;;
11711;SDS011;5912;51.034;6.984;2022-08-02T08:20:59;1.95;;;1.30;;
11711;SDS011;5912;51.034;6.984;2022-08-02T08:23:25;1.48;;;1.38;;
11711;SDS011;5912;51.034;6.984;2022-08-02T08:25:50;1.27;;;1.17;;
11711;SDS011;5912;51.034;6.984;2022-08-02T08:28:15;1.70;;;1.10;;
11711;SDS011;5912;51.034;6.984;2022-08-02T08:30:41;2.35;;;1.20;;
11711;SDS011;5912;51.034;6.984;2022-08-02T08:33:06;1.73;;;1.15;;
11711;SDS011;5912;51.034;6.984;2022-08-02T08:35:32;2.97;;;1.65;;
11711;SDS011;5912;51.034;6.984;2022-08-02T08:37:58;3.72;;;1.83;;
11711;SDS011;5912;51.034;6.984;2022-08-02T08:40:23;3.85;;;2.00;;
11711;SDS011;5912;51.034;6.984;2022-08-02T08:42:49;2.22;;;1.33;;
11711;SDS011;5912;51.034;6.984;2022-08-02T08:45:15;1.63;;;1.30;;
11711;SDS011;5912;51.034;6.984;2022-08-02T08:47:42;2.83;;;1.20;;
11711;SDS011;5912;51.034;6.984;2022-08-02T08:50:10;2.33;;;1.35;;
11711;SDS011;5912;51.034;6.984;2022-08-02T08:52:41;2.40;;;1.25;;
11711;SDS011;5912;51.034;6.984;2022-08-02T08:55:10;2.75;;;1.73;;
11711;SDS011;5912;51.034;6.984;2022-08-02T08:57:39;1.60;;;1.30;;
11711;SDS011;5912;51.034;6.984;2022-08-02T09:00:06;1.90;;;1.27;;
11711;SDS011;5912;51.034;6.984;2022-08-02T09:02:34;1.85;;;1.20;;
11711;SDS011;5912;51.034;6.984;2022-08-02T09:05:00;2.17;;;1.20;;
11711;SDS011;5912;51.034;6.984;2022-08-02T09:07:26;2.00;;;1.00;;
11711;SDS011;5912;51.034;6.984;2022-08-02T09:09:52;1.40;;;1.27;;
11711;SDS011;5912;51.034;6.984;2022-08-02T09:12:18;1.60;;;1.10;;
11711;SDS011;5912;51.034;6.984;2022-08-02T09:14:46;1.88;;;1.15;;
11711;SDS011;5912;51.034;6.984;2022-08-02T09:17:11;2.53;;;1.45;;
11711;SDS011;5912;51.034;6.984;2022-08-02T09:19:36;1.88;;;1.42;;
11711;SDS011;5912;51.034;6.984;2022-08-02T09:22:03;3.10;;;1.50;;
11711;SDS011;5912;51.034;6.984;2022-08-02T09:24:43;1.85;;;1.35;;
11711;SDS011;5912;51.034;6.984;2022-08-02T09:27:16;3.28;;;1.45;;
11711;SDS011;5912;51.034;6.984;2022-08-02T09:29:47;1.75;;;1.20;;
11711;SDS011;5912;51.034;6.984;2022-08-02T09:32:16;1.20;;;1.10;;
11711;SDS011;5912;51.034;6.984;2022-08-02T09:34:46;1.42;;;1.27;;
11711;SDS011;5912;51.034;6.984;2022-08-02T09:37:23;1.30;;;1.13;;
11711;SDS011;5912;51.034;6.984;2022-08-02T09:39:49;2.65;;;1.67;;
11711;SDS011;5912;51.034;6.984;2022-08-02T09:42:15;2.47;;;1.45;;
11711;SDS011;5912;51.034;6.984;2022-08-02T09:44:56;1.30;;;1.00;;
11711;SDS011;5912;51.034;6.984;2022-08-02T09:47:25;2.83;;;1.15;;
11711;SDS011;5912;51.034;6.984;2022-08-02T09:49:55;2.85;;;1.30;;
11711;SDS011;5912;51.034;6.984;2022-08-02T09:52:27;1.85;;;1.10;;
11711;SDS011;5912;51.034;6.984;2022-08-02T09:54:54;2.40;;;1.50;;
11711;SDS011;5912;51.034;6.984;2022-08-02T09:57:26;3.95;;;1.33;;
11711;SDS011;5912;51.034;6.984;2022-08-02T09:59:56;3.80;;;1.52;;
11711;SDS011;5912;51.034;6.984;2022-08-02T10:02:22;1.38;;;1.20;;
11711;SDS011;5912;51.034;6.984;2022-08-02T10:04:47;3.22;;;1.55;;
11711;SDS011;5912;51.034;6.984;2022-08-02T10:07:13;3.13;;;1.65;;
11711;SDS011;5912;51.034;6.984;2022-08-02T10:09:39;2.95;;;1.35;;
11711;SDS011;5912;51.034;6.984;2022-08-02T10:12:05;3.35;;;1.40;;
11711;SDS011;5912;51.034;6.984;2022-08-02T10:14:32;2.53;;;1.10;;
11711;SDS011;5912;51.034;6.984;2022-08-02T10:16:59;3.20;;;1.40;;
11711;SDS011;5912;51.034;6.984;2022-08-02T10:19:24;1.65;;;1.27;;
11711;SDS011;5912;51.034;6.984;2022-08-02T10:22:23;1.00;;;1.00;;
11711;SDS011;5912;51.034;6.984;2022-08-02T10:24:43;1.52;;;1.23;;
11711;SDS011;5912;51.034;6.984;2022-08-02T10:27:16;2.85;;;1.00;;
11711;SDS011;5912;51.034;6.984;2022-08-02T10:29:45;0.95;;;0.85;;
11711;SDS011;5912;51.034;6.984;2022-08-02T10:37:26;1.23;;;1.00;;
11711;SDS011;5912;51.034;6.984;2022-08-02T10:39:54;2.45;;;1.05;;
11711;SDS011;5912;51.034;6.984;2022-08-02T10:45:11;1.95;;;1.00;;
11711;SDS011;5912;51.034;6.984;2022-08-02T10:47:39;2.10;;;1.10;;
11711;SDS011;5912;51.034;6.984;2022-08-02T10:50:20;1.10;;;1.00;;
11711;SDS011;5912;51.034;6.984;2022-08-02T10:52:45;0.90;;;0.90;;
11711;SDS011;5912;51.034;6.984;2022-08-02T10:55:10;2.88;;;1.02;;
11711;SDS011;5912;51.034;6.984;2022-08-02T10:57:38;1.35;;;0.90;;
11711;SDS011;5912;51.034;6.984;2022-08-02T11:00:24;1.00;;;0.90;;
11711;SDS011;5912;51.034;6.984;2022-08-02T11:02:51;1.40;;;1.00;;
11711;SDS011;5912;51.034;6.984;2022-08-02T11:05:28;1.88;;;1.00;;
11711;SDS011;5912;51.034;6.984;2022-08-02T11:07:55;1.02;;;0.85;;
11711;SDS011;5912;51.034;6.984;2022-08-02T11:10:34;0.80;;;0.80;;
11711;SDS011;5912;51.034;6.984;2022-08-02T11:13:03;1.10;;;1.00;;
11711;SDS011;5912;51.034;6.984;2022-08-02T11:18:17;1.70;;;1.10;;
11711;SDS011;5912;51.034;6.984;2022-08-02T11:20:43;0.80;;;0.80;;
11711;SDS011;5912;51.034;6.984;2022-08-02T11:26:00;1.98;;;0.90;;
11711;SDS011;5912;51.034;6.984;2022-08-02T11:28:29;1.08;;;0.75;;
11711;SDS011;5912;51.034;6.984;2022-08-02T11:30:56;1.42;;;0.93;;
11711;SDS011;5912;51.034;6.984;2022-08-02T11:33:31;0.77;;;0.77;;
11711;SDS011;5912;51.034;6.984;2022-08-02T11:36:04;1.60;;;1.00;;
11711;SDS011;5912;51.034;6.984;2022-08-02T11:38:31;1.95;;;1.17;;
11711;SDS011;5912;51.034;6.984;2022-08-02T11:40:56;1.70;;;0.85;;
11711;SDS011;5912;51.034;6.984;2022-08-02T11:43:23;2.55;;;0.90;;
11711;SDS011;5912;51.034;6.984;2022-08-02T11:45:52;1.02;;;0.80;;
11711;SDS011;5912;51.034;6.984;2022-08-02T11:48:30;1.48;;;1.20;;
11711;SDS011;5912;51.034;6.984;2022-08-02T11:53:39;4.38;;;1.00;;
11711;SDS011;5912;51.034;6.984;2022-08-02T11:56:06;0.90;;;0.70;;
11711;SDS011;5912;51.034;6.984;2022-08-02T11:58:32;1.45;;;0.80;;
11711;SDS011;5912;51.034;6.984;2022-08-02T12:00:57;2.00;;;0.95;;
11711;SDS011;5912;51.034;6.984;2022-08-02T12:03:22;0.95;;;0.80;;
11711;SDS011;5912;51.034;6.984;2022-08-02T12:05:48;1.30;;;0.85;;
11711;SDS011;5912;51.034;6.984;2022-08-02T12:08:13;1.83;;;0.90;;
11711;SDS011;5912;51.034;6.984;2022-08-02T12:10:45;2.97;;;1.30;;
11711;SDS011;5912;51.034;6.984;2022-08-02T12:13:12;1.60;;;1.05;;
11711;SDS011;5912;51.034;6.984;2022-08-02T12:15:38;0.90;;;0.90;;
11711;SDS011;5912;51.034;6.984;2022-08-02T12:18:23;1.13;;;0.90;;
11711;SDS011;5912;51.034;6.984;2022-08-02T12:21:21;2.45;;;1.20;;
11711;SDS011;5912;51.034;6.984;2022-08-02T12:23:48;2.08;;;0.88;;
11711;SDS011;5912;51.034;6.984;2022-08-02T12:26:14;1.23;;;1.10;;
11711;SDS011;5912;51.034;6.984;2022-08-02T12:28:39;1.00;;;0.90;;
11711;SDS011;5912;51.034;6.984;2022-08-02T12:31:08;1.30;;;1.05;;
11711;SDS011;5912;51.034;6.984;2022-08-02T12:36:21;1.30;;;1.13;;
11711;SDS011;5912;51.034;6.984;2022-08-02T12:38:55;1.85;;;1.00;;
11711;SDS011;5912;51.034;6.984;2022-08-02T12:41:21;1.38;;;1.00;;
11711;SDS011;5912;51.034;6.984;2022-08-02T12:43:48;0.82;;;0.82;;
11711;SDS011;5912;51.034;6.984;2022-08-02T12:46:15;0.80;;;0.80;;
11711;SDS011;5912;51.034;6.984;2022-08-02T12:48:42;1.13;;;0.95;;
11711;SDS011;5912;51.034;6.984;2022-08-02T12:53:47;1.00;;;0.90;;
11711;SDS011;5912;51.034;6.984;2022-08-02T12:56:24;1.15;;;0.98;;
11711;SDS011;5912;51.034;6.984;2022-08-02T12:58:51;1.25;;;0.85;;
11711;SDS011;5912;51.034;6.984;2022-08-02T13:01:23;2.38;;;1.10;;
11711;SDS011;5912;51.034;6.984;2022-08-02T13:03:50;1.83;;;1.00;;
11711;SDS011;5912;51.034;6.984;2022-08-02T13:06:17;2.15;;;1.02;;
11711;SDS011;5912;51.034;6.984;2022-08-02T13:08:43;2.55;;;0.90;;
11711;SDS011;5912;51.034;6.984;2022-08-02T13:11:09;3.53;;;1.02;;
11711;SDS011;5912;51.034;6.984;2022-08-02T13:13:34;1.40;;;0.98;;
11711;SDS011;5912;51.034;6.984;2022-08-02T13:16:00;1.33;;;1.00;;
11711;SDS011;5912;51.034;6.984;2022-08-02T13:18:25;1.33;;;0.80;;
11711;SDS011;5912;51.034;6.984;2022-08-02T13:20:50;1.05;;;0.88;;
11711;SDS011;5912;51.034;6.984;2022-08-02T13:23:16;1.40;;;1.00;;
11711;SDS011;5912;51.034;6.984;2022-08-02T13:25:41;3.25;;;1.00;;
11711;SDS011;5912;51.034;6.984;2022-08-02T13:28:07;2.47;;;0.80;;
11711;SDS011;5912;51.034;6.984;2022-08-02T13:30:32;1.50;;;0.70;;
11711;SDS011;5912;51.034;6.984;2022-08-02T13:32:58;0.80;;;0.80;;
11711;SDS011;5912;51.034;6.984;2022-08-02T13:35:23;0.70;;;0.63;;
11711;SDS011;5912;51.034;6.984;2022-08-02T13:37:49;1.10;;;0.70;;
11711;SDS011;5912;51.034;6.984;2022-08-02T13:40:14;0.80;;;0.80;;
11711;SDS011;5912;51.034;6.984;2022-08-02T13:42:40;1.13;;;0.80;;
11711;SDS011;5912;51.034;6.984;2022-08-02T13:45:05;1.85;;;0.75;;
11711;SDS011;5912;51.034;6.984;2022-08-02T13:47:31;0.73;;;0.73;;
11711;SDS011;5912;51.034;6.984;2022-08-02T13:49:58;1.40;;;0.90;;
11711;SDS011;5912;51.034;6.984;2022-08-02T13:52:23;1.17;;;0.80;;
11711;SDS011;5912;51.034;6.984;2022-08-02T13:54:49;1.60;;;0.90;;
11711;SDS011;5912;51.034;6.984;2022-08-02T13:57:14;0.60;;;0.60;;
11711;SDS011;5912;51.034;6.984;2022-08-02T13:59:39;1.85;;;0.70;;
11711;SDS011;5912;51.034;6.984;2022-08-02T14:02:05;1.00;;;0.70;;
11711;SDS011;5912;51.034;6.984;2022-08-02T14:04:30;0.80;;;0.70;;
11711;SDS011;5912;51.034;6.984;2022-08-02T14:06:56;1.63;;;0.68;;
11711;SDS011;5912;51.034;6.984;2022-08-02T14:09:22;0.93;;;0.80;;
11711;SDS011;5912;51.034;6.984;2022-08-02T14:11:49;1.70;;;0.80;;
11711;SDS011;5912;51.034;6.984;2022-08-02T14:14:15;0.80;;;0.80;;
11711;SDS011;5912;51.034;6.984;2022-08-02T14:16:41;1.08;;;0.75;;
11711;SDS011;5912;51.034;6.984;2022-08-02T14:19:06;1.27;;;0.85;;
11711;SDS011;5912;51.034;6.984;2022-08-02T14:21:33;1.00;;;0.88;;
11711;SDS011;5912;51.034;6.984;2022-08-02T14:23:58;1.13;;;0.80;;
11711;SDS011;5912;51.034;6.984;2022-08-02T14:26:23;1.73;;;0.90;;
11711;SDS011;5912;51.034;6.984;2022-08-02T14:28:49;0.98;;;0.70;;
11711;SDS011;5912;51.034;6.984;2022-08-02T14:31:14;1.40;;;1.02;;
11711;SDS011;5912;51.034;6.984;2022-08-02T14:33:39;1.20;;;1.08;;
11711;SDS011;5912;51.034;6.984;2022-08-02T14:36:05;1.02;;;0.90;;
11711;SDS011;5912;51.034;6.984;2022-08-02T14:38:30;1.10;;;1.00;;
11711;SDS011;5912;51.034;6.984;2022-08-02T14:40:56;2.30;;;1.13;;
11711;SDS011;5912;51.034;6.984;2022-08-02T14:43:22;1.42;;;0.90;;
11711;SDS011;5912;51.034;6.984;2022-08-02T14:46:22;1.15;;;0.90;;
11711;SDS011;5912;51.034;6.984;2022-08-02T14:48:48;1.48;;;0.95;;
11711;SDS011;5912;51.034;6.984;2022-08-02T14:51:13;1.05;;;0.95;;
11711;SDS011;5912;51.034;6.984;2022-08-02T14:53:39;2.53;;;1.00;;
11711;SDS011;5912;51.034;6.984;2022-08-02T14:56:05;1.13;;;0.85;;
11711;SDS011;5912;51.034;6.984;2022-08-02T14:58:30;1.13;;;1.02;;
11711;SDS011;5912;51.034;6.984;2022-08-02T15:00:55;3.60;;;1.00;;
11711;SDS011;5912;51.034;6.984;2022-08-02T15:03:21;1.55;;;1.00;;
11711;SDS011;5912;51.034;6.984;2022-08-02T15:05:46;1.25;;;0.93;;
11711;SDS011;5912;51.034;6.984;2022-08-02T15:08:11;1.35;;;0.75;;
11711;SDS011;5912;51.034;6.984;2022-08-02T15:10:37;2.20;;;0.90;;
11711;SDS011;5912;51.034;6.984;2022-08-02T15:13:02;1.17;;;0.95;;
11711;SDS011;5912;51.034;6.984;2022-08-02T15:15:27;0.73;;;0.73;;
11711;SDS011;5912;51.034;6.984;2022-08-02T15:17:53;1.67;;;0.88;;
11711;SDS011;5912;51.034;6.984;2022-08-02T15:20:18;1.60;;;1.00;;
11711;SDS011;5912;51.034;6.984;2022-08-02T15:22:43;1.02;;;0.70;;
11711;SDS011;5912;51.034;6.984;2022-08-02T15:25:09;1.10;;;0.63;;
11711;SDS011;5912;51.034;6.984;2022-08-02T15:27:34;1.05;;;0.90;;
11711;SDS011;5912;51.034;6.984;2022-08-02T15:29:59;1.13;;;0.90;;
11711;SDS011;5912;51.034;6.984;2022-08-02T15:32:24;1.02;;;0.93;;
11711;SDS011;5912;51.034;6.984;2022-08-02T15:34:50;1.10;;;1.00;;
11711;SDS011;5912;51.034;6.984;2022-08-02T15:37:16;1.02;;;0.93;;
11711;SDS011;5912;51.034;6.984;2022-08-02T15:39:41;1.13;;;0.90;;
11711;SDS011;5912;51.034;6.984;2022-08-02T15:42:07;1.38;;;0.90;;
11711;SDS011;5912;51.034;6.984;2022-08-02T15:44:32;2.35;;;1.10;;
11711;SDS011;5912;51.034;6.984;2022-08-02T15:46:58;2.63;;;1.35;;
11711;SDS011;5912;51.034;6.984;2022-08-02T15:49:23;1.92;;;1.35;;
11711;SDS011;5912;51.034;6.984;2022-08-02T15:51:49;1.35;;;1.13;;
11711;SDS011;5912;51.034;6.984;2022-08-02T15:54:15;1.80;;;1.00;;
11711;SDS011;5912;51.034;6.984;2022-08-02T15:56:41;1.30;;;1.10;;